Aeroporto :
LOGIN :

Iscrizione | Disclaimer

   EN    FR    IT 

 










Sommario :    VFR   VFR Marginale   IFR   IFR Intensivo   IFR Molto Intensivo
Visibilità : 
Base nubi : 
>= 8 km
>= 3000ft
5 / 8 km
1000 / 3000 ft
1500m / 5 km
500 / 1000 ft
800 / 1500m
200 / 500 ft
< 800m
< 200 ft
Simboli :   Temporali  Nebbia  Neve Forte  Precipitazioni Forti  Vento > 20 kt
SIGMETs :   Varie  Temporali  Ghiacco  Turbolenza  Onda orograficha  Ceneri Vulcaniche






- Altitudine del aeroporto : 433 ft


LFOC - Chateaudun

ULTIMO METAR :
  • 300300Z AUTO 02006KT CAVOK 10/06 Q1020

METARs OBSOLETI :
  • 300230Z AUTO 03006KT CAVOK 11/06 Q1020
  • 300200Z AUTO 02004KT CAVOK 10/06 Q1020
  • 300130Z AUTO 03006KT CAVOK 11/06 Q1020
  • 300100Z AUTO 02005KT CAVOK 11/06 Q1020
  • 300030Z AUTO 02006KT CAVOK 11/06 Q1020
  • 300000Z AUTO 03004KT CAVOK 12/06 Q1020

TAF TAF LFOC
Valido dal 29 a 09 ore il 30 a 09 ore UTC


290800Z 2909/3009 06012KT CAVOK



MetMap, La meteo Aeronautica in un colpo d'occhio ! - Copyright ORBIFLY Dicembre 2007 - Disclaimer

ORBIFLY MET'MAP TEAM :

Programmazione e sviluppo : Alexandra Zaïnal
Concezione : Baudouin d'Aumeries
Aiuto per la programmazione : Marc-Olivier Méhu
Supporto tecnico e logistico : Manuel Goepfert
Aiuto per la traduzione : Arnaldo La Scala

Contatto : metmap@orbifly.com




FONTI E CREDITI :

   NOAA